createdAt,value
2022-08-09T00:00:26.566Z,0.50
2022-08-09T00:01:26.569Z,0.50
2022-08-09T00:02:27.526Z,0.60
2022-08-09T00:04:00.670Z,0.50
2022-08-09T00:04:34.676Z,0.60
2022-08-09T00:06:18.780Z,0.50
2022-08-09T00:06:27.504Z,0.60
2022-08-09T00:07:26.494Z,0.60
2022-08-09T00:08:31.888Z,0.50
2022-08-09T00:09:27.809Z,0.50
2022-08-09T00:10:26.441Z,0.50
2022-08-09T00:11:55.060Z,0.40
2022-08-09T00:12:29.850Z,0.50
2022-08-09T00:13:27.410Z,0.40
2022-08-09T00:14:37.801Z,0.40
2022-08-09T00:15:35.455Z,0.50
2022-08-09T00:16:38.369Z,0.50
2022-08-09T00:18:05.660Z,0.70
2022-08-09T00:18:27.381Z,0.50
2022-08-09T00:19:27.778Z,0.50
2022-08-09T00:20:27.205Z,0.50
2022-08-09T00:21:26.338Z,0.40
2022-08-09T00:22:35.084Z,0.60
2022-08-09T00:23:56.095Z,0.60
2022-08-09T00:24:27.757Z,0.50
2022-08-09T00:25:32.937Z,0.50
2022-08-09T00:26:29.951Z,0.50
2022-08-09T00:27:27.735Z,0.50
2022-08-09T00:28:27.380Z,0.50
2022-08-09T00:30:10.302Z,0.60
2022-08-09T00:30:27.243Z,0.50
2022-08-09T00:31:55.886Z,0.50
2022-08-09T00:32:27.428Z,0.50
2022-08-09T00:33:49.180Z,0.40
2022-08-09T00:34:27.191Z,0.50
2022-08-09T00:35:27.166Z,0.40
2022-08-09T00:36:29.642Z,0.50
2022-08-09T00:37:26.717Z,0.50
2022-08-09T00:38:26.147Z,0.40
2022-08-09T00:40:12.230Z,0.50
2022-08-09T00:40:30.958Z,0.40
2022-08-09T00:44:13.140Z,0.40
2022-08-09T00:44:14.338Z,0.40
2022-08-09T00:44:14.504Z,0.50
2022-08-09T00:44:28.595Z,0.50
2022-08-09T00:45:26.050Z,0.40
2022-08-09T00:46:56.285Z,0.50
2022-08-09T00:47:27.029Z,0.50
2022-08-09T00:48:27.014Z,0.40
2022-08-09T00:49:26.024Z,0.40
2022-08-09T00:50:25.998Z,0.40
2022-08-09T00:51:26.026Z,0.50
2022-08-09T00:52:29.961Z,0.50
2022-08-09T00:53:25.967Z,0.40
2022-08-09T00:54:31.637Z,0.50
2022-08-09T00:55:54.264Z,0.40
2022-08-09T00:56:26.928Z,0.40
2022-08-09T00:57:34.255Z,0.40
2022-08-09T00:58:27.660Z,0.40
2022-08-09T00:59:40.558Z,0.50
2022-08-09T01:00:27.727Z,0.40
2022-08-09T01:01:25.956Z,0.40
2022-08-09T01:02:26.900Z,0.40
2022-08-09T01:03:28.446Z,0.40
2022-08-09T01:04:25.864Z,0.40
2022-08-09T01:05:51.929Z,0.50
2022-08-09T01:06:53.132Z,0.40
2022-08-09T01:07:37.570Z,0.60
2022-08-09T01:08:27.221Z,0.50
2022-08-09T01:09:25.808Z,0.50
2022-08-09T01:10:28.922Z,0.50
2022-08-09T01:11:25.772Z,0.50
2022-08-09T01:12:25.756Z,0.50
2022-08-09T01:13:41.599Z,0.50
2022-08-09T01:14:26.755Z,0.50
2022-08-09T01:15:25.728Z,0.50
2022-08-09T01:16:25.711Z,0.50
2022-08-09T01:17:25.701Z,0.40
2022-08-09T01:18:30.232Z,0.40
2022-08-09T01:19:40.051Z,0.50
2022-08-09T01:20:26.658Z,0.40
2022-08-09T01:21:25.657Z,0.50
2022-08-09T01:22:26.700Z,0.40
2022-08-09T01:24:02.974Z,0.40
2022-08-09T01:24:26.637Z,0.40
2022-08-09T01:25:25.631Z,0.50
2022-08-09T01:26:26.121Z,0.40
2022-08-09T01:27:25.588Z,0.40
2022-08-09T01:28:26.178Z,0.40
2022-08-09T01:29:28.059Z,0.40
2022-08-09T01:30:35.359Z,0.50
2022-08-09T01:32:30.379Z,0.60
2022-08-09T01:32:32.279Z,0.50
2022-08-09T01:33:26.520Z,0.50
2022-08-09T01:34:25.529Z,0.40
2022-08-09T01:35:37.818Z,0.40
2022-08-09T01:36:26.489Z,0.60
2022-08-09T01:38:05.821Z,0.60
2022-08-09T01:38:26.461Z,0.50
2022-08-09T01:39:25.531Z,0.40
2022-08-09T01:40:28.525Z,0.40
2022-08-09T01:41:26.258Z,0.40
2022-08-09T01:42:25.469Z,0.40
2022-08-09T01:43:25.414Z,0.40
2022-08-09T01:44:25.417Z,0.40
2022-08-09T01:45:25.386Z,0.40
2022-08-09T01:46:26.857Z,0.40
2022-08-09T01:47:25.371Z,0.40
2022-08-09T01:48:29.692Z,0.50
2022-08-09T01:49:26.347Z,0.50
2022-08-09T01:50:36.901Z,0.40
2022-08-09T01:51:26.347Z,0.40
2022-08-09T01:52:25.316Z,0.50
2022-08-09T01:53:29.050Z,0.40
2022-08-09T01:54:25.304Z,0.40
2022-08-09T01:55:25.285Z,0.50
2022-08-09T01:56:25.268Z,0.40
2022-08-09T01:57:25.273Z,0.40
2022-08-09T01:58:25.272Z,0.40
2022-08-09T01:59:25.235Z,0.50
2022-08-09T02:00:35.663Z,0.50
2022-08-09T02:01:57.730Z,0.40
2022-08-09T02:02:31.309Z,0.50
2022-08-09T02:03:26.198Z,0.40
2022-08-09T02:04:25.178Z,0.40
2022-08-09T02:05:37.919Z,0.40
2022-08-09T02:06:26.211Z,0.40
2022-08-09T02:08:40.328Z,0.40
2022-08-09T02:08:40.366Z,0.40
2022-08-09T02:09:26.166Z,0.40
2022-08-09T02:10:29.695Z,0.40
2022-08-09T02:11:25.158Z,0.40
2022-08-09T02:12:26.092Z,0.50
2022-08-09T02:13:26.170Z,0.40
2022-08-09T02:14:27.460Z,0.40
2022-08-09T02:15:25.061Z,0.40
2022-08-09T02:16:33.712Z,0.40
2022-08-09T02:18:01.600Z,0.40
2022-08-09T02:18:26.042Z,0.40
2022-08-09T02:19:25.018Z,0.50
2022-08-09T02:20:32.514Z,0.40
2022-08-09T02:21:26.104Z,0.40
2022-08-09T02:22:27.341Z,0.50
2022-08-09T02:23:39.734Z,0.50
2022-08-09T02:24:26.826Z,0.70
2022-08-09T02:25:24.955Z,0.40
2022-08-09T02:26:27.209Z,0.40
2022-08-09T02:27:43.156Z,0.40
2022-08-09T02:28:25.961Z,0.40
2022-08-09T02:29:24.906Z,0.50
2022-08-09T02:30:25.388Z,0.40
2022-08-09T02:31:24.888Z,0.40
2022-08-09T02:32:24.895Z,0.50
2022-08-09T02:33:37.772Z,0.50
2022-08-09T02:34:40.631Z,0.50
2022-08-09T02:36:03.247Z,0.50
2022-08-09T02:36:26.320Z,0.40
2022-08-09T02:37:24.817Z,0.40
2022-08-09T02:38:29.016Z,0.40
2022-08-09T02:39:34.114Z,0.40
2022-08-09T02:40:30.314Z,0.40
2022-08-09T02:41:24.770Z,0.30
2022-08-09T02:42:25.163Z,0.40
2022-08-09T02:43:24.782Z,0.40
2022-08-09T02:44:27.405Z,0.40
2022-08-09T02:45:26.727Z,0.40
2022-08-09T02:46:24.709Z,0.40
2022-08-09T02:47:24.749Z,0.40
2022-08-09T02:48:30.452Z,0.40
2022-08-09T02:49:38.214Z,0.50
2022-08-09T02:50:25.674Z,0.40
2022-08-09T02:51:26.518Z,0.40
2022-08-09T02:52:24.790Z,0.40
2022-08-09T02:53:26.407Z,0.30
2022-08-09T02:54:24.630Z,0.30
2022-08-09T02:55:24.622Z,0.40
2022-08-09T02:56:25.606Z,0.40
2022-08-09T02:57:25.068Z,0.50
2022-08-09T02:58:32.972Z,0.40
2022-08-09T02:59:26.125Z,0.40
2022-08-09T03:00:26.444Z,0.40
2022-08-09T03:01:29.421Z,0.40
2022-08-09T03:02:25.547Z,0.50
2022-08-09T03:03:48.028Z,0.40
2022-08-09T03:04:29.596Z,0.50
2022-08-09T03:05:24.520Z,0.50
2022-08-09T03:06:25.177Z,0.40
2022-08-09T03:07:24.488Z,0.50
2022-08-09T03:08:24.470Z,0.50
2022-08-09T03:09:24.485Z,0.40
2022-08-09T03:10:24.457Z,0.40
2022-08-09T03:11:30.029Z,0.50
2022-08-09T03:12:25.608Z,0.60
2022-08-09T03:13:24.432Z,0.40
2022-08-09T03:14:26.651Z,0.40
2022-08-09T03:15:24.395Z,0.50
2022-08-09T03:16:25.380Z,0.40
2022-08-09T03:17:27.122Z,0.40
2022-08-09T03:18:31.089Z,0.40
2022-08-09T03:19:58.884Z,0.50
2022-08-09T03:20:25.341Z,0.40
2022-08-09T03:21:25.811Z,0.40
2022-08-09T03:22:25.738Z,0.40
2022-08-09T03:23:25.404Z,0.40
2022-08-09T03:24:31.578Z,0.40
2022-08-09T03:25:26.650Z,0.40
2022-08-09T03:26:31.894Z,0.50
2022-08-09T03:27:25.260Z,0.40
2022-08-09T03:28:24.344Z,0.40
2022-08-09T03:29:24.255Z,0.50
2022-08-09T03:30:30.026Z,0.40
2022-08-09T03:31:25.214Z,0.40
2022-08-09T03:32:24.283Z,0.40
2022-08-09T03:33:24.195Z,0.40
2022-08-09T03:34:24.238Z,0.40
2022-08-09T03:36:11.719Z,0.40
2022-08-09T03:36:27.373Z,0.40
2022-08-09T03:37:55.450Z,0.30
2022-08-09T03:38:29.034Z,0.40
2022-08-09T03:39:28.679Z,0.40
2022-08-09T03:40:25.348Z,0.30
2022-08-09T03:41:30.267Z,0.40
2022-08-09T03:42:30.666Z,0.40
2022-08-09T03:43:25.082Z,0.40
2022-08-09T03:44:27.832Z,0.50
2022-08-09T03:46:05.197Z,0.40
2022-08-09T03:46:29.301Z,0.40
2022-08-09T03:47:25.034Z,0.50
2022-08-09T03:48:29.405Z,0.40
2022-08-09T03:49:25.038Z,0.40
2022-08-09T03:50:27.925Z,0.40
2022-08-09T03:51:55.419Z,0.40
2022-08-09T03:52:25.001Z,0.40
2022-08-09T03:53:32.377Z,0.40
2022-08-09T03:54:29.295Z,0.50
2022-08-09T03:55:24.948Z,0.40
2022-08-09T03:56:23.941Z,0.40
2022-08-09T03:57:23.949Z,0.40
2022-08-09T03:58:23.918Z,0.40
2022-08-09T03:59:27.100Z,0.40
2022-08-09T04:00:23.929Z,0.30
2022-08-09T04:01:24.929Z,0.40
2022-08-09T04:02:27.015Z,0.40
2022-08-09T04:03:35.314Z,0.40
2022-08-09T04:04:24.995Z,0.40
2022-08-09T04:05:27.520Z,0.40
2022-08-09T04:06:23.861Z,0.40
2022-08-09T04:07:23.839Z,0.60
2022-08-09T04:08:29.035Z,0.50
2022-08-09T04:09:47.459Z,0.60
2022-08-09T04:10:29.400Z,0.50
2022-08-09T04:11:25.027Z,0.50
2022-08-09T04:12:30.767Z,0.50
2022-08-09T04:13:44.789Z,0.40
2022-08-09T04:14:53.129Z,0.40
2022-08-09T04:15:39.123Z,0.40
2022-08-09T04:16:24.783Z,0.40
2022-08-09T04:17:23.724Z,0.50
2022-08-09T04:18:25.121Z,0.40
2022-08-09T04:19:30.266Z,0.50
2022-08-09T04:20:24.676Z,0.50
2022-08-09T04:21:23.665Z,0.50
2022-08-09T04:22:23.693Z,0.60
2022-08-09T04:23:25.647Z,0.60
2022-08-09T04:24:24.320Z,0.60
2022-08-09T04:25:23.667Z,0.80
2022-08-09T04:26:23.695Z,0.60
2022-08-09T04:27:23.673Z,0.60
2022-08-09T04:28:33.349Z,0.60
2022-08-09T04:29:24.589Z,0.70
2022-08-09T04:30:26.192Z,0.50
2022-08-09T04:31:26.317Z,0.50
2022-08-09T04:32:34.114Z,0.50
2022-08-09T04:33:24.551Z,0.40
2022-08-09T04:34:31.655Z,0.50
2022-08-09T04:35:24.512Z,0.40
2022-08-09T04:36:24.233Z,0.40
2022-08-09T04:37:23.499Z,0.50
2022-08-09T04:38:24.501Z,0.50
2022-08-09T04:39:23.497Z,0.40
2022-08-09T04:40:36.088Z,0.40
2022-08-09T04:41:32.402Z,0.50
2022-08-09T04:42:24.451Z,0.40
2022-08-09T04:43:23.433Z,0.50
2022-08-09T04:44:23.414Z,0.40
2022-08-09T04:45:24.334Z,0.40
2022-08-09T04:46:38.251Z,0.40
2022-08-09T04:47:24.398Z,0.40
2022-08-09T04:48:23.917Z,0.50
2022-08-09T04:49:40.377Z,0.40
2022-08-09T04:50:24.346Z,0.50
2022-08-09T04:51:24.332Z,0.40
2022-08-09T04:52:26.465Z,0.40
2022-08-09T04:53:23.325Z,0.40
2022-08-09T04:54:23.301Z,0.40
2022-08-09T04:55:23.306Z,0.40
2022-08-09T04:56:26.271Z,0.40
2022-08-09T04:57:23.944Z,0.40
2022-08-09T04:58:23.306Z,0.50
2022-08-09T04:59:23.245Z,0.40
2022-08-09T05:00:23.237Z,0.40
2022-08-09T05:01:23.224Z,0.50
2022-08-09T05:02:23.226Z,0.50
2022-08-09T05:03:41.086Z,0.40
2022-08-09T05:04:30.999Z,0.40
2022-08-09T05:05:32.352Z,0.40
2022-08-09T05:06:27.963Z,0.40
2022-08-09T05:07:24.163Z,0.40
2022-08-09T05:08:23.169Z,0.40
2022-08-09T05:09:24.167Z,0.40
2022-08-09T05:10:23.122Z,0.40
2022-08-09T05:11:23.126Z,0.40
2022-08-09T05:12:24.165Z,0.40
2022-08-09T05:13:23.112Z,0.50
2022-08-09T05:14:23.080Z,0.40
2022-08-09T05:15:24.625Z,0.50
2022-08-09T05:16:28.549Z,0.50
2022-08-09T05:18:38.837Z,0.40
2022-08-09T05:18:39.911Z,0.40
2022-08-09T05:19:26.016Z,0.40
2022-08-09T05:20:24.033Z,0.40
2022-08-09T05:21:24.806Z,0.40
2022-08-09T05:23:55.250Z,0.40
2022-08-09T05:23:55.261Z,0.40
2022-08-09T05:24:24.196Z,0.40
2022-08-09T05:25:22.982Z,0.40
2022-08-09T05:26:31.654Z,0.50
2022-08-09T05:27:23.937Z,0.50
2022-08-09T05:28:22.947Z,0.40
2022-08-09T05:29:24.543Z,0.40
2022-08-09T05:30:23.902Z,0.40
2022-08-09T05:31:44.073Z,0.40
2022-08-09T05:32:23.890Z,0.40
2022-08-09T05:33:26.486Z,0.40
2022-08-09T05:34:30.133Z,0.40
2022-08-09T05:35:23.882Z,0.50
2022-08-09T05:36:22.842Z,0.50
2022-08-09T05:37:24.022Z,0.50
2022-08-09T05:38:22.834Z,0.60
2022-08-09T05:39:28.834Z,0.60
2022-08-09T05:40:23.793Z,0.60
2022-08-09T05:41:22.780Z,0.60
2022-08-09T05:42:28.193Z,0.50
2022-08-09T05:43:23.778Z,0.50
2022-08-09T05:44:29.034Z,0.70
2022-08-09T05:45:24.817Z,0.60
2022-08-09T05:46:22.952Z,0.70
2022-08-09T05:47:23.177Z,0.60
2022-08-09T05:48:27.777Z,0.50
2022-08-09T05:50:24.042Z,0.60
2022-08-09T05:50:36.182Z,0.70
2022-08-09T05:51:42.405Z,0.70
2022-08-09T05:52:24.815Z,0.70
2022-08-09T05:53:33.433Z,0.70
2022-08-09T05:54:23.637Z,0.70
2022-08-09T05:55:24.038Z,0.60
2022-08-09T05:56:25.907Z,0.80
2022-08-09T05:57:25.031Z,1.00
2022-08-09T05:58:23.607Z,1.60
2022-08-09T05:59:22.584Z,1.70
2022-08-09T06:00:22.567Z,1.60
2022-08-09T06:01:22.560Z,1.30
2022-08-09T06:02:22.664Z,1.50
2022-08-09T06:03:22.673Z,1.90
2022-08-09T06:04:23.356Z,1.90
2022-08-09T06:05:30.625Z,2.10
2022-08-09T06:06:23.511Z,1.90
2022-08-09T06:07:22.500Z,2.10
2022-08-09T06:08:24.806Z,1.90
2022-08-09T06:09:23.071Z,2.00
2022-08-09T06:10:23.460Z,2.40
2022-08-09T06:11:24.471Z,2.50
2022-08-09T06:12:26.339Z,2.50
2022-08-09T06:13:22.432Z,2.30
2022-08-09T06:14:22.454Z,2.60
2022-08-09T06:15:22.408Z,2.50
2022-08-09T06:16:22.401Z,2.50
2022-08-09T06:17:22.393Z,2.60
2022-08-09T06:18:24.859Z,0.10
2022-08-09T06:19:22.379Z,0.00
2022-08-09T06:20:22.488Z,0.20
2022-08-09T06:21:22.335Z,0.20
2022-08-09T06:22:28.900Z,0.50
2022-08-09T06:23:23.323Z,0.30
2022-08-09T06:24:23.875Z,0.00
2022-08-09T06:25:22.297Z,0.40
2022-08-09T06:26:22.696Z,0.70
2022-08-09T06:27:23.282Z,0.50
2022-08-09T06:28:22.311Z,0.10
2022-08-09T06:29:23.253Z,0.10
2022-08-09T06:30:22.255Z,0.40
2022-08-09T06:31:30.746Z,0.50
2022-08-09T06:32:58.926Z,0.60
2022-08-09T06:33:39.667Z,0.50
2022-08-09T06:34:25.953Z,0.00
2022-08-09T06:35:22.864Z,0.40
2022-08-09T06:36:27.210Z,0.50
2022-08-09T06:37:23.186Z,0.50
2022-08-09T06:38:31.969Z,0.50
2022-08-09T06:39:23.164Z,0.50
2022-08-09T06:40:24.269Z,0.50
2022-08-09T06:41:22.135Z,0.50
2022-08-09T06:42:24.372Z,0.70
2022-08-09T06:43:22.094Z,0.30
2022-08-09T06:44:22.088Z,0.60
2022-08-09T06:46:06.903Z,0.10
2022-08-09T06:46:40.285Z,1.00
2022-08-09T06:47:23.673Z,0.50
2022-08-09T06:48:30.647Z,0.60
2022-08-09T06:49:44.440Z,0.40
2022-08-09T06:50:23.027Z,0.30
2022-08-09T06:51:22.029Z,0.40
2022-08-09T06:52:29.688Z,0.30
2022-08-09T06:53:22.988Z,0.30
2022-08-09T06:54:21.984Z,0.00
2022-08-09T06:55:23.157Z,0.10
2022-08-09T06:56:21.987Z,0.10
2022-08-09T06:57:42.447Z,0.10
2022-08-09T06:58:40.625Z,0.00
2022-08-09T07:00:51.344Z,0.00
2022-08-09T07:00:52.617Z,0.10
2022-08-09T07:01:24.124Z,0.00
2022-08-09T07:02:21.941Z,0.00
2022-08-09T07:03:27.685Z,0.00
2022-08-09T07:04:22.873Z,0.00
2022-08-09T07:05:21.862Z,0.00
2022-08-09T07:06:21.897Z,0.10
2022-08-09T07:07:58.737Z,0.00
2022-08-09T07:08:22.826Z,0.10
2022-08-09T07:09:57.215Z,0.00
2022-08-09T07:10:31.296Z,0.00
2022-08-09T07:11:23.788Z,0.10
2022-08-09T07:12:21.787Z,0.00
2022-08-09T07:13:28.072Z,0.10
2022-08-09T07:14:26.767Z,0.00
2022-08-09T07:16:34.852Z,0.20
2022-08-09T07:16:42.521Z,0.00
2022-08-09T07:17:22.821Z,0.00
2022-08-09T07:18:21.725Z,0.00
2022-08-09T07:19:23.468Z,0.00
2022-08-09T07:20:21.694Z,0.00
2022-08-09T07:21:21.702Z,0.00
2022-08-09T07:22:34.693Z,0.10
2022-08-09T07:23:22.854Z,0.20
2022-08-09T07:24:21.660Z,0.00
2022-08-09T07:25:22.667Z,0.20
2022-08-09T07:26:22.382Z,0.20
2022-08-09T07:27:26.993Z,0.00
2022-08-09T07:28:28.140Z,0.20
2022-08-09T07:29:22.615Z,0.10
2022-08-09T07:30:25.236Z,0.00
2022-08-09T07:31:21.582Z,0.20
2022-08-09T07:32:21.595Z,0.60
2022-08-09T07:33:21.551Z,0.70
2022-08-09T07:34:21.559Z,0.60
2022-08-09T07:35:21.560Z,0.90
2022-08-09T07:36:22.124Z,0.60
2022-08-09T07:37:22.088Z,0.10
2022-08-09T07:38:21.507Z,0.20
2022-08-09T07:39:41.222Z,0.50
2022-08-09T07:40:26.735Z,0.40
2022-08-09T07:41:21.625Z,0.40
2022-08-09T07:42:21.462Z,0.40
2022-08-09T07:43:22.450Z,0.50
2022-08-09T07:44:28.441Z,0.40
2022-08-09T07:45:23.573Z,0.10
2022-08-09T07:46:22.422Z,0.20
2022-08-09T07:47:21.561Z,0.40
2022-08-09T07:48:28.675Z,0.60
2022-08-09T07:49:22.385Z,0.50
2022-08-09T07:50:21.508Z,0.30
2022-08-09T07:52:05.648Z,0.40
2022-08-09T07:52:22.363Z,0.10
2022-08-09T07:54:01.639Z,0.30
2022-08-09T07:54:28.098Z,0.60
2022-08-09T07:55:22.339Z,0.30
2022-08-09T07:56:26.696Z,0.30
2022-08-09T07:57:21.301Z,0.20
2022-08-09T07:58:21.620Z,0.40
2022-08-09T07:59:33.996Z,0.40
2022-08-09T08:00:36.410Z,0.40
2022-08-09T08:01:22.307Z,0.50
2022-08-09T08:02:22.306Z,0.40
2022-08-09T08:03:21.263Z,0.40
2022-08-09T08:04:25.598Z,0.40
2022-08-09T08:05:22.221Z,0.80
2022-08-09T08:06:21.446Z,0.70
2022-08-09T08:08:42.379Z,1.10
2022-08-09T08:09:00.981Z,0.70
2022-08-09T08:09:41.250Z,0.70
2022-08-09T08:10:22.443Z,0.60
2022-08-09T08:12:09.130Z,0.80
2022-08-09T08:12:28.420Z,0.50
2022-08-09T08:13:22.162Z,0.50
2022-08-09T08:14:24.256Z,0.70
2022-08-09T08:15:23.176Z,0.60
2022-08-09T08:16:31.502Z,0.50
2022-08-09T08:17:24.883Z,0.40
2022-08-09T08:18:22.108Z,0.70
2022-08-09T08:19:21.086Z,0.20
2022-08-09T08:20:28.636Z,0.30
2022-08-09T08:21:22.067Z,0.30
2022-08-09T08:22:21.063Z,0.30
2022-08-09T08:24:39.834Z,20.60
2022-08-09T08:25:39.927Z,8.50
2022-08-09T08:26:54.947Z,3.60
2022-08-09T08:27:40.930Z,2.20
2022-08-09T08:28:32.883Z,4.00
2022-08-09T08:29:39.565Z,4.00
2022-08-09T08:30:31.778Z,6.60
2022-08-09T08:32:02.301Z,5.80
2022-08-09T08:32:31.764Z,6.90
2022-08-09T08:33:40.644Z,5.40
2022-08-09T08:34:31.745Z,9.20
2022-08-09T08:35:53.030Z,1.90
2022-08-09T08:36:31.726Z,1.90
2022-08-09T08:37:41.740Z,1.90
2022-08-09T08:38:31.727Z,1.30
2022-08-09T08:39:33.036Z,1.00
2022-08-09T08:40:31.687Z,0.40
2022-08-09T08:41:42.040Z,0.40
2022-08-09T08:42:32.446Z,0.40
2022-08-09T08:43:30.667Z,0.40
2022-08-09T08:44:30.647Z,0.40
2022-08-09T08:45:37.193Z,2.70
2022-08-09T08:46:41.515Z,2.60
2022-08-09T08:47:31.629Z,3.10
2022-08-09T08:48:31.605Z,1.80
2022-08-09T08:49:38.317Z,0.30
2022-08-09T08:50:31.587Z,0.70
2022-08-09T08:51:38.835Z,0.70
2022-08-09T08:53:36.996Z,0.30
2022-08-09T08:54:32.050Z,0.60
2022-08-09T08:55:32.238Z,0.50
2022-08-09T08:56:32.119Z,0.40
2022-08-09T08:57:30.517Z,0.40
2022-08-09T08:58:31.551Z,0.30
2022-08-09T08:59:47.087Z,0.40
2022-08-09T09:00:34.462Z,0.60
2022-08-09T09:01:44.765Z,0.70
2022-08-09T09:02:32.093Z,2.20
2022-08-09T09:03:37.247Z,2.90
2022-08-09T09:04:37.876Z,0.80
2022-08-09T09:05:42.101Z,0.40
2022-08-09T09:06:31.435Z,0.50
2022-08-09T09:07:30.512Z,1.00
2022-08-09T09:08:32.069Z,0.80
2022-08-09T09:09:58.469Z,0.70
2022-08-09T09:10:31.399Z,0.80
2022-08-09T09:11:30.391Z,0.60
2022-08-09T09:12:30.792Z,0.50
2022-08-09T09:13:41.820Z,0.80
2022-08-09T09:14:31.377Z,1.00
2022-08-09T09:15:30.352Z,1.10
2022-08-09T09:16:32.453Z,1.00
2022-08-09T09:17:46.410Z,1.10
2022-08-09T09:18:31.324Z,1.10
2022-08-09T09:19:40.926Z,1.00
2022-08-09T09:20:31.308Z,1.00
2022-08-09T09:21:30.295Z,0.80
2022-08-09T09:22:31.287Z,0.80
2022-08-09T09:23:37.529Z,0.60
2022-08-09T09:24:31.286Z,0.70
2022-08-09T09:26:01.535Z,0.70
2022-08-09T09:26:31.252Z,0.70
2022-08-09T09:28:04.473Z,0.80
2022-08-09T09:29:02.568Z,0.80
2022-08-09T09:29:58.173Z,0.70
2022-08-09T09:30:41.347Z,0.80
2022-08-09T09:32:06.892Z,0.70
2022-08-09T09:32:34.861Z,0.80
2022-08-09T09:33:30.185Z,0.70
2022-08-09T09:34:32.006Z,0.70
2022-08-09T09:35:30.184Z,1.20
2022-08-09T09:36:30.162Z,1.10
2022-08-09T09:37:32.165Z,1.20
2022-08-09T09:38:37.037Z,1.20
2022-08-09T09:39:54.801Z,0.90
2022-08-09T09:40:31.190Z,1.20
2022-08-09T09:41:33.025Z,0.90
2022-08-09T09:42:31.327Z,1.00
2022-08-09T09:43:30.097Z,1.30
2022-08-09T09:44:31.894Z,0.90
2022-08-09T09:45:31.727Z,0.90
2022-08-09T09:46:50.382Z,1.10
2022-08-09T09:47:32.632Z,0.80
2022-08-09T09:48:30.056Z,1.30
2022-08-09T09:49:50.074Z,1.30
2022-08-09T09:50:31.045Z,1.00
2022-08-09T09:51:38.316Z,0.90
2022-08-09T09:52:37.331Z,0.90
2022-08-09T09:53:43.998Z,0.80
2022-08-09T09:54:31.000Z,1.10
2022-08-09T09:55:32.863Z,0.90
2022-08-09T09:56:31.658Z,0.80
2022-08-09T09:58:02.503Z,1.00
2022-08-09T09:58:30.963Z,0.80
2022-08-09T09:59:35.507Z,1.20
2022-08-09T10:00:30.997Z,0.80
2022-08-09T10:01:37.613Z,0.90
2022-08-09T10:02:31.212Z,1.10
2022-08-09T10:03:29.949Z,1.00
2022-08-09T10:04:31.426Z,1.00
2022-08-09T10:06:01.008Z,1.10
2022-08-09T10:06:32.296Z,1.10
2022-08-09T10:07:30.230Z,1.00
2022-08-09T10:08:29.880Z,1.70
2022-08-09T10:09:30.516Z,1.10
2022-08-09T10:10:31.676Z,1.10
2022-08-09T10:11:59.572Z,1.10
2022-08-09T10:12:31.470Z,1.20
2022-08-09T10:13:43.100Z,1.10
2022-08-09T10:14:33.426Z,1.10
2022-08-09T10:16:09.261Z,1.10
2022-08-09T10:16:56.851Z,1.40
2022-08-09T10:17:51.098Z,1.40
2022-08-09T10:18:30.788Z,1.40
2022-08-09T10:19:29.781Z,1.60
2022-08-09T10:20:35.930Z,1.70
2022-08-09T10:21:30.819Z,1.60
2022-08-09T10:22:32.714Z,1.70
2022-08-09T10:23:29.749Z,1.50
2022-08-09T10:24:35.712Z,1.50
2022-08-09T10:25:34.846Z,1.40
2022-08-09T10:26:30.721Z,2.30
2022-08-09T10:27:38.662Z,1.80
2022-08-09T10:28:30.709Z,2.00
2022-08-09T10:30:22.114Z,1.60
2022-08-09T10:32:46.112Z,1.80
2022-08-09T10:34:08.828Z,2.00
2022-08-09T10:34:32.809Z,1.90
2022-08-09T10:35:29.645Z,2.10
2022-08-09T10:36:29.673Z,2.20
2022-08-09T10:37:29.629Z,2.20
2022-08-09T10:38:54.284Z,2.30
2022-08-09T10:39:40.690Z,2.90
2022-08-09T10:40:34.655Z,2.40
2022-08-09T10:41:31.258Z,2.40
2022-08-09T10:42:29.591Z,2.60
2022-08-09T10:43:36.148Z,2.60
2022-08-09T10:44:31.771Z,2.90
2022-08-09T10:45:31.722Z,2.80
2022-08-09T10:46:29.553Z,2.60
2022-08-09T10:48:16.965Z,2.50
2022-08-09T10:48:31.190Z,2.60
2022-08-09T10:49:50.978Z,3.10
2022-08-09T10:50:31.439Z,2.80
2022-08-09T10:51:40.882Z,2.80
2022-08-09T10:52:30.507Z,3.20
2022-08-09T10:53:29.498Z,3.00
2022-08-09T10:54:30.492Z,2.40
2022-08-09T10:55:49.165Z,2.90
2022-08-09T10:56:30.474Z,3.10
2022-08-09T10:57:29.470Z,2.60
2022-08-09T10:58:29.456Z,2.40
2022-08-09T10:59:30.723Z,2.10
2022-08-09T11:00:29.461Z,2.00
2022-08-09T11:03:13.309Z,2.10
2022-08-09T11:03:16.555Z,2.10
2022-08-09T11:03:51.000Z,2.10
2022-08-09T11:04:32.733Z,1.90
2022-08-09T11:05:29.681Z,2.40
2022-08-09T11:06:29.391Z,2.10
2022-08-09T11:07:57.038Z,2.40
2022-08-09T11:08:33.393Z,2.10
2022-08-09T11:09:32.514Z,2.50
2022-08-09T11:10:30.587Z,2.20
2022-08-09T11:11:29.354Z,2.00
2022-08-09T11:12:30.169Z,1.80
2022-08-09T11:13:50.219Z,1.70
2022-08-09T11:14:31.868Z,1.10
2022-08-09T11:15:31.650Z,1.10
2022-08-09T11:16:33.614Z,1.00
2022-08-09T11:17:31.096Z,0.80
2022-08-09T11:18:29.295Z,0.90
2022-08-09T11:20:07.791Z,0.70
2022-08-09T11:20:30.636Z,0.80
2022-08-09T11:21:29.260Z,1.10
2022-08-09T11:22:29.245Z,1.10
2022-08-09T11:23:29.939Z,7.30
2022-08-09T11:24:29.226Z,0.40
2022-08-09T11:25:36.339Z,0.50
2022-08-09T11:26:30.229Z,0.50
2022-08-09T11:28:07.973Z,0.70
2022-08-09T11:28:33.734Z,0.50
2022-08-09T11:30:04.373Z,0.50
2022-08-09T11:30:33.275Z,0.40
2022-08-09T11:31:36.411Z,0.50
2022-08-09T11:32:30.363Z,0.50
2022-08-09T11:33:30.084Z,0.80
2022-08-09T11:34:30.070Z,9.20
2022-08-09T11:35:35.339Z,1.00
2022-08-09T11:36:35.884Z,0.60
2022-08-09T11:37:41.120Z,0.70
2022-08-09T11:38:32.644Z,0.70
2022-08-09T11:39:33.594Z,1.20
2022-08-09T11:40:30.106Z,1.30
2022-08-09T11:41:38.350Z,1.40
2022-08-09T11:42:30.347Z,1.30
2022-08-09T11:43:32.227Z,1.20
2022-08-09T11:44:29.110Z,1.30
2022-08-09T11:45:42.097Z,1.60
2022-08-09T11:46:33.269Z,1.90
2022-08-09T11:47:29.015Z,2.10
2022-08-09T11:48:30.026Z,2.30
2022-08-09T11:49:29.030Z,2.10
2022-08-09T11:50:56.168Z,2.20
2022-08-09T11:53:02.349Z,1.90
2022-08-09T11:53:20.851Z,2.60
2022-08-09T11:54:01.074Z,4.90
2022-08-09T11:54:34.917Z,5.40
2022-08-09T11:55:52.637Z,4.70
2022-08-09T11:56:41.529Z,4.90
2022-08-09T11:57:47.897Z,7.50
2022-08-09T11:58:32.502Z,5.40
2022-08-09T11:59:30.344Z,7.20
2022-08-09T12:00:28.908Z,7.80
2022-08-09T12:02:17.863Z,8.50
2022-08-09T12:02:37.291Z,5.80
2022-08-09T12:03:50.410Z,0.70
2022-08-09T12:04:32.262Z,1.50
2022-08-09T12:05:33.255Z,0.40
2022-08-09T12:06:32.660Z,0.30
2022-08-09T12:07:41.217Z,0.40
2022-08-09T12:08:29.831Z,0.40
2022-08-09T12:09:33.930Z,0.30
2022-08-09T12:10:39.239Z,0.30
2022-08-09T12:11:33.270Z,1.60
2022-08-09T12:12:31.895Z,0.60
2022-08-09T12:14:11.078Z,5.40
2022-08-09T12:14:37.219Z,4.30
2022-08-09T12:15:50.373Z,5.10
2022-08-09T12:16:37.748Z,1.00
2022-08-09T12:17:42.286Z,4.60
2022-08-09T12:18:31.066Z,9.20
2022-08-09T12:19:28.711Z,7.60
2022-08-09T12:20:29.002Z,6.50
2022-08-09T12:21:38.227Z,6.60
2022-08-09T12:22:29.704Z,7.60
2022-08-09T12:23:57.953Z,7.00
2022-08-09T12:24:29.876Z,8.50
2022-08-09T12:25:32.055Z,10.30
2022-08-09T12:26:29.658Z,10.70
2022-08-09T12:29:13.271Z,10.00
2022-08-09T12:29:15.613Z,8.80
2022-08-09T12:29:33.400Z,10.00
2022-08-09T12:30:36.287Z,10.50
2022-08-09T12:31:30.823Z,10.50
2022-08-09T12:32:29.577Z,10.20
2022-08-09T12:33:35.603Z,10.00
2022-08-09T12:34:29.578Z,10.30
2022-08-09T12:35:28.574Z,9.20
2022-08-09T12:36:32.079Z,7.40
2022-08-09T12:37:29.205Z,7.40
2022-08-09T12:38:37.454Z,6.50
2022-08-09T12:39:29.620Z,0.30
2022-08-09T12:40:28.495Z,0.50
2022-08-09T12:41:28.489Z,0.40
2022-08-09T12:42:28.476Z,0.40
2022-08-09T12:44:05.612Z,0.50
2022-08-09T12:44:29.453Z,0.50
2022-08-09T12:45:34.706Z,0.40
2022-08-09T12:46:29.432Z,0.20
2022-08-09T12:47:28.426Z,0.40
2022-08-09T12:48:33.731Z,0.60
2022-08-09T12:49:29.421Z,0.20
2022-08-09T12:50:28.727Z,0.30
2022-08-09T12:51:52.702Z,0.80
2022-08-09T12:52:42.817Z,1.00
2022-08-09T12:53:35.090Z,6.60
2022-08-09T12:54:29.671Z,9.30
2022-08-09T12:56:15.994Z,5.70
2022-08-09T12:56:39.548Z,5.30
2022-08-09T12:57:29.326Z,5.40
2022-08-09T12:58:29.466Z,5.80
2022-08-09T12:59:57.816Z,5.70
2022-08-09T13:00:29.290Z,5.70
2022-08-09T13:01:28.866Z,5.60
2022-08-09T13:02:28.272Z,5.60
2022-08-09T13:03:53.620Z,5.90
2022-08-09T13:04:36.497Z,5.90
2022-08-09T13:05:35.473Z,5.90
2022-08-09T13:06:34.894Z,5.60
2022-08-09T13:07:51.004Z,5.50
2022-08-09T13:08:39.565Z,5.60
2022-08-09T13:09:30.381Z,5.90
2022-08-09T13:10:34.859Z,6.10
2022-08-09T13:11:30.105Z,6.00
2022-08-09T13:12:28.257Z,6.00
2022-08-09T13:13:28.172Z,5.50
2022-08-09T13:14:41.399Z,6.40
2022-08-09T13:15:29.227Z,5.70
2022-08-09T13:16:28.145Z,5.90
2022-08-09T13:18:02.703Z,6.40
2022-08-09T13:18:29.129Z,6.30
2022-08-09T13:20:06.853Z,5.90
2022-08-09T13:20:37.858Z,6.10
2022-08-09T13:22:37.280Z,6.10
2022-08-09T13:22:45.696Z,6.40